Aviation Digital Data Service (ADDS)

Output produced by METARs form (2113 UTC 24 May 2015)
found at http://aviationweather.gov/adds/metars/
 
KLEB 241949Z 2420/2518 26012G25KT P6SM SCT100 
     TEMPO 2420/2424 BKN100 
     FM250000 19002KT P6SM SCT250 
     FM251200 23002KT P6SM OVC100 
     FM251600 22009KT P6SM BKN050